Create Custom Reports and Graphics: Custom Report

Latest Observations

Map

15 Minute Data

Lodi West

Latest Observations

15 Minute Data | America/Los_Angeles
as of 9/17/19 12:37 PM PDT
Station Date Time Temp (°F) Dew Pt (°F) RH (%) Wind Dir (°) Wind Spd (mph) Wind Gust (mph) Latest Rain (In) Daily Rain (In) Daily Min Temp (°F) Daily Max Temp (°F)
Utter - Wilson 9/17/19 1230 76.7   2.6 52.4   2.4 43   8 W | 279 3.6   4.5 8.5   5.4 0.00 0.00 49.8   10.6 78.4   3.9
Clarksburg (CLK) 9/17/19 1230 79.9   4.3 50.2   6.3 35   16 NNW | 342 2.0   4.6 6.0   8.0 0.00 0.00 49.3   11.0 80.0   4.3
Gorter - Wilson 9/17/19 1230 76.7   3.0 53.3   5.2 44   15 WNW | 303 4.4   2.9 8.6   3.7 0.00 0.00 46.3   13.5 78.3   4.0
Hood (HOD) 9/17/19 1230 76.1   4.0 54.1   4.1 46   15 NW | 323 3.1   5.3 6.9   8.9 0.00 0.00 48.8   11.2 76.2   4.0
Courtland-C3 9/17/19 1230 74.7   3.6 52.4   4.7 46   16 W | 277 4.7   4.8 9.2   7.2 0.00 0.00 48.1   10.7 75.3   3.7
Pacific Fruit 9/17/19 1230 75.4   2.4 52.8   5.0 45   14 W | 271 5.1   4.3 9.6   8.2 0.00 0.00 50.6   9.9 76.4   2.8
Ryer Island South (RIS) 9/17/19 1230 77.0   3.4 51.5   3.0 41   10 NW | 320 3.3   5.5 8.1   8.6 0.00 0.00 54.6   6.0 77.6   3.7
Guard Rd (Lodi WSW) 9/17/19 1230 76.5   5.5 56.4   0.8 50   12 WNW | 300 3.8   4.0 9.8   6.8 0.00 0.00 48.9   10.9 77.1   5.7
Claussen 9/17/19 1230 75.9   4.3 54.6   4.6 48   18 NW | 325 5.2   4.3 11.8   6.7 0.00 0.00 53.2   7.9 76.8   4.6
Max     79.9 56.4 50 - 5.2 11.8 0.00 0.00 54.6 80.0
Avg     76.5 53.1 44 - 3.9 8.7 0.00 - - -
Min     74.7 50.2 35 - 2.0 6.0 0.00 0.00 46.3 75.3

Lodi Central

Latest Observations

15 Minute Data | America/Los_Angeles
as of 9/17/19 12:37 PM PDT
Station Date Time Temp (°F) Dew Pt (°F) RH (%) Wind Dir (°) Wind Spd (mph) Wind Gust (mph) Latest Rain (In) Daily Rain (In) Daily Min Temp (°F) Daily Max Temp (°F)
Galt West (GAW) 9/17/19 1230 76.2   4.1 51.5   5.1 42   16 WNW | 292 4.0   4.6 10.0   8.7 0.00 0.00 47.6   12.5 77.1   4.8
Valley Oak 9/17/19 1230 75.4   4.9 51.4   5.8 43   20 WNW | 288 3.4   5.4 7.5   9.2 0.00 0.00 48.4   11.5 75.9   4.6
Thornton 9/17/19 1230 75.8   4.0 53.7   3.9 46   15 WNW | 302 4.4   2.2 8.8   5.0 0.00 0.00 47.5   13.1 76.6   4.2
Kost Rd 9/17/19 1230 74.9   3.8 55.0   4.1 50   16 WNW | 282 3.4   2.1 6.7   3.0 0.00 0.00 48.4   12.0 75.5   3.7
DeVries Road-North 9/17/19 1230 75.0   3.3 54.0   4.7 48   16 WNW | 298 4.5   2.8 8.2   4.3 0.00 0.00 48.1   12.7 75.6   3.1
Lodi (LangeTwins) 9/17/19 1230 74.0   4.9 55.2   4.8 52   21 WNW | 283 4.3   3.2 8.8   5.4 0.00 0.00 49.6   9.9 74.6   4.2
Acampo (ACP) 9/17/19 1230 74.9   6.8 51.8   9.0 44   33 WNW | 301 4.8   0.6 9.5   1.0 0.00 0.00 49.1   10.1 75.4   6.2
Lodi West (MDW) 9/17/19 1230 75.0   4.1 53.3   3.5 47   14 NW | 313 2.7   3.7 7.7   7.2 0.00 0.00 50.3   8.9 76.1   4.7
Max     76.2 55.2 52 - 4.8 10.0 0.00 0.00 50.3 77.1
Avg     75.1 53.2 47 - 3.9 8.4 0.00 - - -
Min     74.0 51.4 42 - 2.7 6.7 0.00 0.00 47.5 74.6

Latest Observation

19 Stations

15 Minute Data | America/Los_Angeles
as of 9/17/19 12:37 PM PDT
Station Date Time Temp (°F) Dew Pt (°F) RH (%) Wind Spd (mph) Wind Dir (°) Wind Gust (mph) Latest Rain (In) Daily Rain (In) Daily Min Temp (°F) Daily Max Temp (°F)
Borden Hills 9/17/19 1230 76.2   10.5 56.0   7.3 50   42 5.2   0.3 WNW | 297 9.3   0.2 0.00 0.00 52.5   7.0 76.7   7.6
Collegeville (COL) 9/17/19 1230 74.6   8.0 55.2   3.9 51   26 4.2   1.4 NW | 305 8.9   1.4 0.00 0.00 50.6   7.8 74.9   7.9
Galt-East (EGT) 9/17/19 1230 74.8   9.9 54.7   8.0 50   43 4.9   1.8 W | 280 9.9   2.0 0.00 0.00 50.2   8.2 75.4   9.2
Escalon (ESL) 9/17/19 1230 75.8   10.1 54.6   6.7 48   38 3.0   0.7 NW | 326 7.2   0.7 0.00 0.00 52.7   7.0 76.5   9.1
Victor - N (Katusha) 9/17/19 1230 74.8   8.3 50.9   8.0 43   33 4.8   1.7 W | 271 8.4   0.3 0.00 0.00 48.4   9.6 75.4   8.1
Gilbeau Ranch 9/17/19 1230 74.7   6.8 51.0   10.0 43   35 3.8   0.1 W | 277 7.9   3.1 0.00 0.00 49.4   8.9 75.8   6.9
Lodi 9/1/19 2315 68.3   2.1 54.6   2.0 61   8 0.0   0.0 N | 0 0.0   0.6 0.00 0.00 54.3   2.9 96.9   0.2
Linden (LIN) 9/17/19 1230 74.3   7.9 54.8   5.6 50   30 3.5   0.5 NW | 310 7.2   0.5 0.00 0.00 46.1   8.9 75.2   7.7
Live Oak (LIV) 9/17/19 1230 75.9   4.5 55.2   7.5 49   25 3.2   1.6 W | 268 6.6   3.7 0.00 0.00 49.4   8.7 76.4   4.5
Lockeford (LOC) 9/17/19 1230 74.6   10.1 - - 4.8   0.7 WNW | 290 8.8   0.8 0.00 0.00 50.0   8.7 75.0   10.0
Lone Oak-L28 9/17/19 1230 72.6   9.0 55.2   4.7 54   33 4.2   0.8 W | 271 8.5   1.1 0.00 0.00 46.3   10.0 73.7   9.2
Sheldon (SHL) 9/17/19 1230 76.7   11.3 50.7   12.2 40   51 3.8   0.7 NW | 308 9.1   0.7 0.00 0.00 47.0   12.5 77.4   10.4
Sierra Loma-L27 9/17/19 1230 75.6   10.1 54.9   7.0 49   39 5.1   0.7 SSW | 200 11.3   0.4 0.00 0.00 51.0   7.4 76.5   9.3
Simmerhorn (SIM) 9/17/19 1230 73.7   8.0 50.0   10.1 43   39 - - - - - 49.6   8.7 74.2   7.4
Sloughhouse (SLH) 9/17/19 1200 73.0   11.3 - - 1.4   1.4 W | 259 8.8   8.8 0.00 0.00 - -
5 Wells 9/17/19 1230 75.0   8.3 52.6   8.9 46   38 4.1   1.1 NW | 309 8.1   1.0 0.00 0.00 50.0   9.1 75.6   8.2
Max     76.7 56.0 54 5.2 - 11.3 0.00 0.00 52.7 77.4
Avg     74.8 53.5 47 4.0 - 8.6 0.00 - - -
Min     72.6 50.0 40 1.4 - 6.6 0.00 0.00 46.1 73.7